Latest Weather Observations for Ouse

IDT60801

Issued at 5:21 pm EST Monday 1 June 2020 (issued every 10 minutes, with the page automatically refreshed every 10 minutes)

About weather observations | Map of weather stations | Latest weather observations for TAS | Other Formats
Station Details ID: 095048 Name: OUSE FIRE STATION Lat: -42.48 Lon: 146.71 Height: 90.0 m
Data from the previous 72 hours. | See also: Recent months at Ouse
Date/Time
EST
Temp
°C
App
Temp
°C
Dew
Point
°C
Rel
Hum
%
Delta-T
°C
Wind Press
QNH
hPa
Press
MSL
hPa
Rain since
9am
mm
Dir  Spd
km/h
Gust
km/h
Spd
kts
Gust
kts
01/05:00pm 12.4 8.3 7.7 73 2.3 WNW 19 26 10 14 1004.3 1004.6 0.0
01/04:30pm 12.9 9.4 7.4 69 2.7 WNW 15 20 8 11 1003.5 1003.8 0.0
01/04:00pm 13.1 12.2 7.8 70 2.6 SE 2 6 1 3 1002.8 1003.1 0.0
01/03:30pm 13.8 12.5 7.8 67 3.0 ESE 4 11 2 6 1002.8 1003.1 0.0
01/03:00pm 14.5 12.8 7.5 63 3.5 N 6 7 3 4 1002.5 1002.8 0.0
01/02:30pm 14.0 12.3 7.5 65 3.2 NNE 6 7 3 4 1002.1 1002.4 0.0
01/02:00pm 12.6 12.0 7.5 71 2.5 CALM 0 0 0 0 1002.1 1002.4 0.0
01/01:30pm 11.4 9.9 6.7 73 2.2 SE 4 7 2 4 1002.0 1002.3 0.0
01/01:00pm 12.7 11.4 6.1 64 3.2 S 2 7 1 4 1001.8 1002.1 0.0
01/12:30pm 11.7 10.4 6.0 68 2.7 NNE 2 7 1 4 1001.8 1002.1 0.0
01/12:00pm 10.3 8.9 5.5 72 2.2 NNE 2 7 1 4 1002.2 1002.5 0.0
01/11:30am 8.7 7.2 4.9 77 1.7 ESE 2 6 1 3 1002.2 1002.5 0.0
01/11:00am 7.0 4.6 4.5 84 1.1 ESE 6 9 3 5 1002.5 1002.8 0.0
01/10:30am 6.1 4.3 3.6 84 1.1 SSE 2 7 1 4 1002.5 1002.8 0.0
01/10:00am 4.9 2.2 2.8 86 0.9 E 6 9 3 5 1002.5 1002.8 0.0
01/09:30am 3.8 1.8 2.2 89 0.6 NNE 2 7 1 4 1002.4 1002.6 0.0
01/09:00am 2.0 -0.9 1.6 97 0.2 NNE 6 9 3 5 1002.3 1002.5 0.0
01/08:30am 0.3 -3.0 0.2 99 0.0 NW 7 7 4 4 1002.1 1002.3 0.0
01/08:00am -1.2 -4.2 -1.5 98 0.0 N 4 7 2 4 1002.0 1002.2 0.0
01/07:30am -1.3 -3.5 -1.6 98 0.0 CALM 0 0 0 0 1001.8 1001.9 0.0
01/07:00am -1.1 -4.4 -1.4 98 0.1 N 6 7 3 4 1001.7 1001.8 0.0
01/06:30am -0.9 -3.1 -1.3 97 0.1 CALM 0 0 0 0 1001.4 1001.5 0.0
01/06:00am -0.6 -4.1 -1.0 97 0.1 N 7 9 4 5 1001.0 1001.1 0.0
01/05:30am 0.0 -2.4 -0.3 98 0.1 NNW 2 7 1 4 1000.9 1001.0 0.0
01/05:00am 0.3 -2.1 -0.1 97 0.1 NNW 2 6 1 3 1000.9 1001.0 0.0
01/04:30am 0.6 -2.5 0.2 97 0.1 NNE 6 9 3 5 1000.8 1000.9 0.0
01/04:00am 1.1 -1.9 0.7 97 0.1 WNW 6 9 3 5 1000.7 1000.8 0.0
01/03:30am 1.7 -0.5 1.3 97 0.2 NNW 2 7 1 4 1000.9 1001.0 0.0
01/03:00am 1.9 0.1 1.5 97 0.2 CALM 0 0 0 0 1001.1 1001.2 0.0
01/02:30am 1.9 -0.6 1.3 96 0.2 NNW 4 7 2 4 1001.5 1001.6 0.0
01/02:00am 2.3 0.2 1.7 96 0.2 NW 2 7 1 4 1001.6 1001.7 0.0
01/01:30am 2.2 0.4 1.5 95 0.3 CALM 0 0 0 0 1001.8 1001.9 0.0
01/01:00am 2.4 0.7 1.7 95 0.3 CALM 0 0 0 0 1002.1 1002.3 0.0
01/12:30am 2.5 0.0 1.8 95 0.3 NW 4 7 2 4 1002.5 1002.7 0.0
01/12:00am 2.6 0.9 1.9 95 0.3 CALM 0 0 0 0 1002.8 1003.0 0.0
 
Date/Time
EST
Temp
°C
App
Temp
°C
Dew
Point
°C
Rel
Hum
%
Delta-T
°C
Wind Press
QNH
hPa
Press
MSL
hPa
Rain since
9am
mm
Dir  Spd
km/h
Gust
km/h
Spd
kts
Gust
kts
31/11:30pm 2.2 0.4 1.5 95 0.3 CALM 0 0 0 0 1003.0 1003.2 0.0
31/11:00pm 2.2 0.0 1.3 94 0.3 N 2 7 1 4 1003.3 1003.5 0.0
31/10:30pm 2.6 0.9 1.7 94 0.3 CALM 0 0 0 0 1003.6 1003.8 0.0
31/10:00pm 2.8 1.1 1.8 93 0.4 CALM 0 6 0 3 1004.0 1004.2 0.0
31/09:30pm 2.7 -0.2 1.5 92 0.5 ENE 6 7 3 4 1004.0 1004.2 0.0
31/09:00pm 3.1 0.3 1.9 92 0.5 ENE 6 9 3 5 1004.5 1004.7 0.0
31/08:30pm 3.4 0.7 2.4 93 0.4 NNW 6 9 3 5 1004.6 1004.8 0.0
31/08:00pm 3.3 1.2 1.7 89 0.6 NNE 2 7 1 4 1004.9 1005.0 0.0
31/07:30pm 4.4 2.8 2.3 86 0.8 CALM 0 0 0 0 1004.9 1005.0 0.0
31/07:00pm 5.2 2.8 2.4 82 1.1 W 4 7 2 4 1004.9 1005.0 0.0
31/06:30pm 6.6 3.3 2.5 75 1.7 NNW 9 13 5 7 1004.8 1004.9 0.0
31/06:00pm 7.9 4.8 3.8 75 1.8 NW 9 13 5 7 1004.5 1004.7 0.0
31/05:30pm 9.9 6.7 5.1 72 2.2 WNW 11 13 6 7 1004.5 1004.7 0.0
31/05:00pm 10.8 7.2 4.9 67 2.7 NW 13 19 7 10 1004.4 1004.6 0.0
31/04:30pm 11.1 8.3 5.0 66 2.8 WNW 9 13 5 7 1004.3 1004.5 0.0
31/04:00pm 11.7 8.8 4.9 63 3.1 WNW 9 11 5 6 1004.3 1004.5 0.0
31/03:30pm 13.0 9.3 4.4 56 3.9 NW 13 20 7 11 1004.2 1004.4 0.0
31/03:00pm 13.4 8.5 4.0 53 4.3 NW 19 26 10 14 1004.1 1004.3 0.0
31/02:30pm 14.2 9.8 4.8 53 4.4 NNW 17 26 9 14 1003.9 1004.1 0.0
31/02:00pm 14.2 10.3 5.3 55 4.2 NW 15 26 8 14 1004.2 1004.4 0.0
31/01:30pm 14.7 10.6 6.0 56 4.2 NNW 17 26 9 14 1004.3 1004.5 0.0
31/01:00pm 14.1 9.9 5.7 57 4.0 NW 17 28 9 15 1005.0 1005.1 0.0
31/12:30pm 13.5 8.7 4.9 56 4.0 NW 19 28 10 15 1005.2 1005.3 0.0
31/12:00pm 13.0 8.6 4.9 58 3.8 NNW 17 28 9 15 1005.6 1005.7 0.0
31/11:30am 13.5 8.7 4.4 54 4.2 NW 19 30 10 16 1006.0 1006.1 0.0
31/11:00am 13.7 10.1 5.1 56 4.0 NNW 13 26 7 14 1006.2 1006.3 0.0
31/10:30am 13.4 9.4 5.1 57 3.9 NNW 15 22 8 12 1006.4 1006.5 0.0
31/10:00am 12.8 8.4 4.8 58 3.7 N 17 22 9 12 1006.5 1006.6 0.0
31/09:30am 12.1 8.7 5.9 66 2.9 N 13 19 7 10 1006.5 1006.6 0.0
31/09:00am 11.0 8.1 6.6 74 2.1 N 11 15 6 8 1006.5 1006.6 0.0
31/08:30am 9.2 6.3 6.3 82 1.3 NNW 11 13 6 7 1006.4 1006.5 0.0
31/08:00am 6.8 4.0 5.1 89 0.8 N 9 13 5 7 1006.0 1006.1 0.0
31/07:30am 8.1 4.8 6.2 88 0.9 N 13 19 7 10 1005.6 1005.7 0.0
31/07:00am 7.7 4.1 5.2 84 1.1 NNW 13 17 7 9 1005.4 1005.5 0.0
31/06:30am 8.9 5.7 5.3 78 1.6 NW 11 13 6 7 1005.1 1005.2 0.0
31/06:00am 10.6 6.9 6.4 75 2.0 NW 15 22 8 12 1004.3 1004.5 0.0
31/05:30am 11.3 8.0 6.6 73 2.2 NW 13 20 7 11 1004.1 1004.3 0.0
31/05:00am 11.9 8.3 6.6 70 2.5 NW 15 20 8 11 1003.4 1003.6 0.0
31/04:30am 11.6 8.9 7.3 75 2.1 NNW 11 17 6 9 1003.0 1003.2 0.0
31/04:00am 12.4 8.5 7.1 70 2.6 NW 17 26 9 14 1002.7 1002.9 0.0
31/03:30am 13.3 8.9 6.4 63 3.3 NW 19 30 10 16 1001.8 1001.9 0.0
31/03:00am 13.1 9.5 6.7 65 3.1 NW 15 24 8 13 1001.9 1002.0 0.0
31/02:30am 13.7 10.1 6.8 63 3.3 NW 15 26 8 14 1002.2 1002.4 0.0
31/02:00am 14.2 10.5 6.3 59 3.8 NNW 15 22 8 12 1002.3 1002.5 0.0
31/01:30am 15.1 10.4 6.1 55 4.4 NNW 20 35 11 19 1002.6 1002.8 0.0
31/01:00am 15.1 10.9 5.9 54 4.5 NNW 17 30 9 16 1002.9 1003.1 0.0
31/12:30am 15.2 10.6 5.4 52 4.7 NNW 19 30 10 16 1003.1 1003.3 0.0
31/12:19am 15.5 9.1 5.1 50 4.9 NNW 28 50 15 27 1003.4 1003.6 0.0
31/12:00am 15.1 9.4 4.8 50 4.9 NNW 24 50 13 27 1004.1 1004.3 0.0
 
Date/Time
EST
Temp
°C
App
Temp
°C
Dew
Point
°C
Rel
Hum
%
Delta-T
°C
Wind Press
QNH
hPa
Press
MSL
hPa
Rain since
9am
mm
Dir  Spd
km/h
Gust
km/h
Spd
kts
Gust
kts
30/11:30pm 14.8 9.9 4.2 49 4.9 NNW 19 35 10 19 1004.8 1004.9 0.0
30/11:00pm 14.3 10.5 3.7 49 4.9 NNW 13 26 7 14 1005.3 1005.4 0.0
30/10:30pm 14.4 9.4 3.5 48 5.0 NNW 19 33 10 18 1005.9 1006.0 0.0
30/10:00pm 13.9 7.9 3.4 49 4.8 N 24 39 13 21 1006.8 1006.9 0.0
30/09:30pm 13.2 8.9 3.3 51 4.4 N 15 33 8 18 1007.3 1007.4 0.0
30/09:00pm 12.8 8.1 3.2 52 4.3 N 17 30 9 16 1007.7 1007.8 0.0
30/08:30pm 13.1 9.1 2.9 50 4.5 N 13 28 7 15 1007.9 1008.0 0.0
30/08:00pm 13.4 7.8 3.2 50 4.6 N 22 48 12 26 1007.7 1007.8 0.0
30/07:30pm 12.9 8.3 3.6 53 4.2 N 17 32 9 17 1007.9 1008.0 0.0
30/07:00pm 12.9 7.9 3.8 54 4.1 N 19 28 10 15 1008.2 1008.3 0.0
30/06:30pm 12.6 8.1 4.1 56 3.9 N 17 22 9 12 1008.6 1008.7 0.0
30/06:00pm 12.8 8.6 4.0 55 4.0 N 15 20 8 11 1009.1 1009.2 0.0
30/05:30pm 13.2 8.3 4.1 54 4.2 N 19 30 10 16 1009.6 1009.7 0.0
30/05:00pm 13.9 8.4 4.2 52 4.5 N 22 33 12 18 1009.6 1009.7 0.0
30/04:30pm 14.8 8.6 4.2 49 4.9 N 26 41 14 22 1010.0 1010.1 0.0
30/04:00pm 15.6 10.7 4.3 47 5.3 NNW 19 41 10 22 1010.6 1010.7 0.0
30/03:30pm 15.9 11.5 4.9 48 5.2 NNW 17 37 9 20 1010.9 1011.0 0.0
30/03:00pm 16.5 12.6 5.2 47 5.4 N 15 24 8 13 1011.3 1011.5 0.0
30/02:30pm 16.7 11.8 5.0 46 5.6 NNW 20 33 11 18 1011.9 1012.1 0.0
30/02:00pm 16.8 12.0 5.4 47 5.5 NNW 20 35 11 19 1012.3 1012.5 0.0
30/01:30pm 17.3 12.1 5.3 45 5.8 NNW 22 35 12 19 1012.8 1013.0 0.0
30/01:00pm 17.1 10.7 5.4 46 5.7 N 28 50 15 27 1013.3 1013.5 0.0
30/12:55pm 17.1 10.7 5.4 46 5.7 N 28 50 15 27 1013.3 1013.5 0.0
30/12:30pm 17.0 10.2 5.3 46 5.6 NNW 30 46 16 25 1014.0 1014.2 0.0
30/12:26pm 16.9 11.2 4.9 45 5.7 NNW 24 46 13 25 1014.2 1014.4 0.0
30/12:00pm 17.0 13.7 6.2 49 5.3 NNW 13 22 7 12 1014.8 1015.0 0.0
30/11:30am 16.3 12.1 5.9 50 5.1 N 17 28 9 15 1015.7 1015.9 0.0
30/11:00am 15.6 11.4 5.8 52 4.7 NNW 17 32 9 17 1016.4 1016.5 0.0
30/10:30am 14.9 11.6 6.2 56 4.2 NNW 13 28 7 15 1017.0 1017.1 0.0
30/10:28am 14.3 11.4 6.6 60 3.7 N 11 26 6 14 1017.0 1017.1 0.0
30/10:00am 8.7 6.3 7.0 89 0.8 NNW 9 17 5 9 1017.5 1017.6 0.0
30/09:30am 6.0 4.9 5.1 94 0.4 CALM 0 0 0 0 1018.0 1018.1 0.0
30/09:00am 3.7 1.5 3.6 99 0.0 N 4 7 2 4 1018.3 1018.4 0.0
30/08:30am 1.9 -0.2 1.5 97 0.2 N 2 9 1 5 1018.4 1018.5 0.0
30/08:00am 1.6 -0.2 1.0 96 0.2 CALM 0 0 0 0 1018.3 1018.4 0.0
30/07:30am 1.8 -1.2 1.1 95 0.3 NNE 6 9 3 5 1018.0 1018.1 0.0
30/07:00am 2.7 1.0 2.0 95 0.3 CALM 0 0 0 0 1018.0 1018.1 0.0
30/06:30am 3.1 1.5 2.2 94 0.4 CALM 0 0 0 0 1017.9 1018.0 0.0
30/06:00am 4.0 2.5 3.0 93 0.4 CALM 0 0 0 0 1017.9 1018.0 0.0
30/05:30am 3.6 2.0 2.3 91 0.5 CALM 0 0 0 0 1017.9 1018.0 0.0
30/05:00am 3.9 1.1 2.3 89 0.6 NNW 6 7 3 4 1017.7 1017.8 0.0
30/04:30am 4.3 1.5 2.2 86 0.8 NNW 6 7 3 4 1017.9 1018.0 0.0
30/04:00am 5.1 2.3 3.1 87 0.8 NNW 7 11 4 6 1018.1 1018.2 0.0
30/03:30am 5.4 2.2 2.9 84 1.0 NNW 9 11 5 6 1018.3 1018.4 0.0
30/03:00am 6.4 3.6 3.0 79 1.4 N 7 11 4 6 1018.4 1018.5 0.0
30/02:30am 8.3 4.9 3.8 73 2.0 N 11 15 6 8 1018.6 1018.7 0.0
30/02:00am 8.4 5.5 4.4 76 1.8 N 9 15 5 8 1018.9 1019.0 0.0
30/01:30am 7.8 4.9 4.6 80 1.4 N 9 13 5 7 1019.0 1019.1 0.0
30/01:00am 8.0 5.2 5.3 83 1.2 N 9 13 5 7 1019.2 1019.3 0.0
30/12:30am 8.2 5.5 5.5 83 1.2 N 9 11 5 6 1019.3 1019.4 0.0
30/12:00am 7.7 5.3 5.2 84 1.1 NNW 7 11 4 6 1019.4 1019.5 0.0
 
Date/Time
EST
Temp
°C
App
Temp
°C
Dew
Point
°C
Rel
Hum
%
Delta-T
°C
Wind Press
QNH
hPa
Press
MSL
hPa
Rain since
9am
mm
Dir  Spd
km/h
Gust
km/h
Spd
kts
Gust
kts
29/11:30pm 7.8 4.9 4.9 82 1.3 NNW 9 13 5 7 1019.5 1019.6 0.0
29/11:00pm 8.8 6.0 5.2 78 1.6 N 9 11 5 6 1019.5 1019.6 0.0
29/10:30pm 9.4 6.3 5.4 76 1.8 N 11 15 6 8 1019.9 1020.0 0.0
29/10:00pm 7.9 5.1 5.0 82 1.3 NNW 9 15 5 8 1019.9 1020.0 0.0
29/09:30pm 6.3 3.9 4.5 88 0.8 N 6 9 3 5 1019.8 1019.9 0.0
29/09:00pm 7.1 4.3 5.1 87 0.9 N 9 11 5 6 1019.9 1020.0 0.0
29/08:30pm 5.5 2.3 3.3 86 0.9 NNW 9 13 5 7 1019.7 1019.8 0.0
29/08:00pm 7.4 3.7 4.7 83 1.2 NW 13 15 7 8 1019.7 1019.8 0.0
29/07:30pm 8.2 5.4 5.1 81 1.4 NNW 9 13 5 7 1019.4 1019.5 0.0
29/07:00pm 8.3 5.3 5.9 85 1.1 NNW 11 15 6 8 1019.3 1019.4 0.0
29/06:30pm 8.1 5.7 5.2 82 1.3 N 7 9 4 5 1019.7 1019.8 0.0
29/06:00pm 10.1 7.9 6.1 76 1.9 NNW 7 9 4 5 1019.8 1019.9 0.0
29/05:30pm 11.5 8.6 6.4 71 2.4 N 11 17 6 9 1019.5 1019.6 0.0

Other formats

Comma delimited format used in spreadsheet applications
http://www.bom.gov.au/fwo/IDT60801/IDT60801.94957.axf

JavaScript Object Notation format (JSON) in row-major order
http://www.bom.gov.au/fwo/IDT60801/IDT60801.94957.json

Data quality

Most of these data are generated automatically and are frequently updated. Quality checks on data are not normally performed. It is possible for incorrect values to appear. Refer to information at About Latest Weather Observations and please check the disclaimer before using these data.